首页
METAR-TAF:

METAR-TAF

机场 :

乌斯怀亚, 阿根廷

乌斯怀亚国际机场

纬度: 54-48S, 经度: 068-19W, 海拔: 16米

当前天气观测

该预报发布于44分钟前的14:00 UTC
风速4节,风向西转西北
温度 7°C
湿度 66%
气压 1003 hPa
能见度10公里或以上
少量云层高于4000英尺
多云层高于10000英尺

METAR: SAWH 251400Z 29004KT 9999 FEW040 BKN100 07/01 Q1003

时间: 11:44 (14:44 UTC)

预报

该预报发布于3小时和44分钟前的11:00 UTC
预报有效从25日的 12点(UTC)到 26日的 12点(UTC)
风速3节,风向多变
能见度10公里或以上
少量云层高于3000英尺
成为
从 25日的 16点(UTC)到 25日的 18点(UTC)
风速10节,风向
多云层高于2000英尺
小雨
成为
从 26日的 00点(UTC)到 26日的 02点(UTC)
风速10节,风向东转东南

TAF: SAWH 251100Z 2512/2612 VRB03KT 9999 FEW030 CT080 TX08/2518Z TN00/2611Z BECMG 2516/2518 18010KT -RA BKN020 BECMG 2600/2602 12010KT

超过4000个机场的气象观测和天气预报(METAR&TAF报告)。

可查询的气象台以黄色和红色小点在地图上表示。

将鼠标移到小点上方,可查看气象台名称。

然后点击查看天气观测和预报。

如需切换地图:点击带黑十字的绿色按钮放大地图;点击带横线的绿色按钮缩小地图;或者点击绿色箭头查看邻近地区的地图。


METAR-TAF: